sensor_id;sensor_type;location;lat;lon;timestamp;P1;durP1;ratioP1;P2;durP2;ratioP2
17422;SDS011;8829;47.932;7.810;2024-01-07T00:02:06;9.17;;;8.63;;
17422;SDS011;8829;47.932;7.810;2024-01-07T00:04:32;5.00;;;4.70;;
17422;SDS011;8829;47.932;7.810;2024-01-07T00:07:01;7.90;;;7.40;;
17422;SDS011;8829;47.932;7.810;2024-01-07T00:09:28;10.77;;;10.17;;
17422;SDS011;8829;47.932;7.810;2024-01-07T00:11:55;8.03;;;7.53;;
17422;SDS011;8829;47.932;7.810;2024-01-07T00:14:21;8.23;;;7.60;;
17422;SDS011;8829;47.932;7.810;2024-01-07T00:16:48;5.07;;;4.87;;
17422;SDS011;8829;47.932;7.810;2024-01-07T00:19:15;14.47;;;13.43;;
17422;SDS011;8829;47.932;7.810;2024-01-07T00:21:42;2.07;;;2.07;;
17422;SDS011;8829;47.932;7.810;2024-01-07T00:24:10;1.60;;;1.50;;
17422;SDS011;8829;47.932;7.810;2024-01-07T00:26:37;1.63;;;1.53;;
17422;SDS011;8829;47.932;7.810;2024-01-07T00:29:03;1.57;;;1.47;;
17422;SDS011;8829;47.932;7.810;2024-01-07T00:31:30;3.63;;;1.57;;
17422;SDS011;8829;47.932;7.810;2024-01-07T00:33:57;1.20;;;1.20;;
17422;SDS011;8829;47.932;7.810;2024-01-07T00:36:24;1.70;;;1.60;;
17422;SDS011;8829;47.932;7.810;2024-01-07T00:38:51;1.20;;;1.20;;
17422;SDS011;8829;47.932;7.810;2024-01-07T00:41:19;1.43;;;1.43;;
17422;SDS011;8829;47.932;7.810;2024-01-07T00:43:45;1.20;;;1.20;;
17422;SDS011;8829;47.932;7.810;2024-01-07T00:46:12;1.23;;;1.23;;
17422;SDS011;8829;47.932;7.810;2024-01-07T00:48:39;2.13;;;2.03;;
17422;SDS011;8829;47.932;7.810;2024-01-07T00:51:05;1.60;;;1.60;;
17422;SDS011;8829;47.932;7.810;2024-01-07T00:53:31;1.40;;;1.40;;
17422;SDS011;8829;47.932;7.810;2024-01-07T00:55:58;1.30;;;1.30;;
17422;SDS011;8829;47.932;7.810;2024-01-07T00:58:26;1.50;;;1.40;;
17422;SDS011;8829;47.932;7.810;2024-01-07T01:00:53;1.57;;;1.47;;
17422;SDS011;8829;47.932;7.810;2024-01-07T01:03:19;1.37;;;1.27;;
17422;SDS011;8829;47.932;7.810;2024-01-07T01:05:46;1.80;;;1.70;;
17422;SDS011;8829;47.932;7.810;2024-01-07T01:08:13;1.33;;;1.33;;
17422;SDS011;8829;47.932;7.810;2024-01-07T01:10:40;1.53;;;1.53;;
17422;SDS011;8829;47.932;7.810;2024-01-07T01:13:07;1.63;;;1.53;;
17422;SDS011;8829;47.932;7.810;2024-01-07T01:15:35;1.40;;;1.40;;
17422;SDS011;8829;47.932;7.810;2024-01-07T01:18:02;2.13;;;2.03;;
17422;SDS011;8829;47.932;7.810;2024-01-07T01:20:32;1.80;;;1.70;;
17422;SDS011;8829;47.932;7.810;2024-01-07T01:22:59;1.67;;;1.57;;
17422;SDS011;8829;47.932;7.810;2024-01-07T01:25:25;1.50;;;1.50;;
17422;SDS011;8829;47.932;7.810;2024-01-07T01:27:52;1.47;;;1.40;;
17422;SDS011;8829;47.932;7.810;2024-01-07T01:30:19;1.50;;;1.50;;
17422;SDS011;8829;47.932;7.810;2024-01-07T01:32:47;1.57;;;1.47;;
17422;SDS011;8829;47.932;7.810;2024-01-07T01:35:14;2.50;;;1.50;;
17422;SDS011;8829;47.932;7.810;2024-01-07T01:37:41;1.40;;;1.40;;
17422;SDS011;8829;47.932;7.810;2024-01-07T01:40:08;1.90;;;1.80;;
17422;SDS011;8829;47.932;7.810;2024-01-07T01:42:35;2.03;;;1.87;;
17422;SDS011;8829;47.932;7.810;2024-01-07T01:45:02;1.67;;;1.57;;
17422;SDS011;8829;47.932;7.810;2024-01-07T01:47:29;1.87;;;1.77;;
17422;SDS011;8829;47.932;7.810;2024-01-07T01:49:58;1.90;;;1.80;;
17422;SDS011;8829;47.932;7.810;2024-01-07T01:52:25;1.83;;;1.73;;
17422;SDS011;8829;47.932;7.810;2024-01-07T01:54:52;2.87;;;1.90;;
17422;SDS011;8829;47.932;7.810;2024-01-07T01:57:20;2.10;;;2.00;;
17422;SDS011;8829;47.932;7.810;2024-01-07T01:59:48;2.37;;;2.27;;
17422;SDS011;8829;47.932;7.810;2024-01-07T02:02:15;3.27;;;2.97;;
17422;SDS011;8829;47.932;7.810;2024-01-07T02:04:42;2.70;;;2.50;;
17422;SDS011;8829;47.932;7.810;2024-01-07T02:07:10;2.90;;;2.70;;
17422;SDS011;8829;47.932;7.810;2024-01-07T02:09:37;2.77;;;2.57;;
17422;SDS011;8829;47.932;7.810;2024-01-07T02:12:05;2.70;;;2.60;;
17422;SDS011;8829;47.932;7.810;2024-01-07T02:14:36;3.40;;;3.20;;
17422;SDS011;8829;47.932;7.810;2024-01-07T02:17:03;3.43;;;3.17;;
17422;SDS011;8829;47.932;7.810;2024-01-07T02:19:30;4.00;;;3.70;;
17422;SDS011;8829;47.932;7.810;2024-01-07T02:21:57;3.87;;;3.57;;
17422;SDS011;8829;47.932;7.810;2024-01-07T02:24:25;3.93;;;3.63;;
17422;SDS011;8829;47.932;7.810;2024-01-07T02:26:51;4.40;;;4.03;;
17422;SDS011;8829;47.932;7.810;2024-01-07T02:29:18;4.30;;;3.90;;
17422;SDS011;8829;47.932;7.810;2024-01-07T02:31:45;4.20;;;3.80;;
17422;SDS011;8829;47.932;7.810;2024-01-07T02:34:11;4.30;;;4.00;;
17422;SDS011;8829;47.932;7.810;2024-01-07T02:36:38;3.87;;;3.57;;
17422;SDS011;8829;47.932;7.810;2024-01-07T02:39:04;3.90;;;3.60;;
17422;SDS011;8829;47.932;7.810;2024-01-07T02:41:32;4.53;;;4.23;;
17422;SDS011;8829;47.932;7.810;2024-01-07T02:43:59;10.13;;;5.97;;
17422;SDS011;8829;47.932;7.810;2024-01-07T02:46:26;38.80;;;9.63;;
17422;SDS011;8829;47.932;7.810;2024-01-07T02:48:52;126.83;;;11.07;;
17422;SDS011;8829;47.932;7.810;2024-01-07T02:51:19;89.17;;;14.73;;
17422;SDS011;8829;47.932;7.810;2024-01-07T02:53:46;19.53;;;10.93;;
17422;SDS011;8829;47.932;7.810;2024-01-07T02:56:12;147.73;;;16.47;;
17422;SDS011;8829;47.932;7.810;2024-01-07T02:58:40;97.13;;;15.40;;
17422;SDS011;8829;47.932;7.810;2024-01-07T03:01:08;33.53;;;12.57;;
17422;SDS011;8829;47.932;7.810;2024-01-07T03:03:35;227.97;;;21.67;;
17422;SDS011;8829;47.932;7.810;2024-01-07T03:06:02;105.90;;;17.43;;
17422;SDS011;8829;47.932;7.810;2024-01-07T03:08:29;290.97;;;28.30;;
17422;SDS011;8829;47.932;7.810;2024-01-07T03:10:55;247.70;;;23.23;;
17422;SDS011;8829;47.932;7.810;2024-01-07T03:13:22;67.20;;;13.47;;
17422;SDS011;8829;47.932;7.810;2024-01-07T03:15:50;66.20;;;12.57;;
17422;SDS011;8829;47.932;7.810;2024-01-07T03:18:17;35.77;;;12.03;;
17422;SDS011;8829;47.932;7.810;2024-01-07T03:20:44;12.77;;;9.20;;
17422;SDS011;8829;47.932;7.810;2024-01-07T03:23:10;23.40;;;10.33;;
17422;SDS011;8829;47.932;7.810;2024-01-07T03:25:37;13.93;;;9.63;;
17422;SDS011;8829;47.932;7.810;2024-01-07T03:28:04;18.67;;;9.00;;
17422;SDS011;8829;47.932;7.810;2024-01-07T03:30:31;42.93;;;10.20;;
17422;SDS011;8829;47.932;7.810;2024-01-07T03:32:59;87.90;;;12.10;;
17422;SDS011;8829;47.932;7.810;2024-01-07T03:35:24;67.73;;;13.10;;
17422;SDS011;8829;47.932;7.810;2024-01-07T03:37:51;32.77;;;10.83;;
17422;SDS011;8829;47.932;7.810;2024-01-07T03:40:18;114.03;;;15.93;;
17422;SDS011;8829;47.932;7.810;2024-01-07T03:42:44;98.73;;;14.13;;
17422;SDS011;8829;47.932;7.810;2024-01-07T03:45:11;108.83;;;12.30;;
17422;SDS011;8829;47.932;7.810;2024-01-07T03:47:38;63.10;;;12.83;;
17422;SDS011;8829;47.932;7.810;2024-01-07T03:50:06;85.67;;;15.63;;
17422;SDS011;8829;47.932;7.810;2024-01-07T03:52:33;23.57;;;10.73;;
17422;SDS011;8829;47.932;7.810;2024-01-07T03:55:00;24.10;;;9.60;;
17422;SDS011;8829;47.932;7.810;2024-01-07T03:57:27;21.97;;;10.43;;
17422;SDS011;8829;47.932;7.810;2024-01-07T03:59:53;12.40;;;9.20;;
17422;SDS011;8829;47.932;7.810;2024-01-07T04:02:20;15.97;;;9.10;;
17422;SDS011;8829;47.932;7.810;2024-01-07T04:04:47;29.53;;;9.97;;
17422;SDS011;8829;47.932;7.810;2024-01-07T04:07:15;15.20;;;9.47;;
17422;SDS011;8829;47.932;7.810;2024-01-07T04:09:42;34.23;;;11.63;;
17422;SDS011;8829;47.932;7.810;2024-01-07T04:12:09;71.00;;;15.50;;
17422;SDS011;8829;47.932;7.810;2024-01-07T04:14:36;202.53;;;20.47;;
17422;SDS011;8829;47.932;7.810;2024-01-07T04:17:03;71.63;;;13.37;;
17422;SDS011;8829;47.932;7.810;2024-01-07T04:19:30;74.17;;;17.53;;
17422;SDS011;8829;47.932;7.810;2024-01-07T04:21:57;171.97;;;20.97;;
17422;SDS011;8829;47.932;7.810;2024-01-07T04:24:25;59.80;;;13.30;;
17422;SDS011;8829;47.932;7.810;2024-01-07T04:26:51;96.50;;;14.90;;
17422;SDS011;8829;47.932;7.810;2024-01-07T04:29:18;51.20;;;14.20;;
17422;SDS011;8829;47.932;7.810;2024-01-07T04:31:45;105.47;;;15.90;;
17422;SDS011;8829;47.932;7.810;2024-01-07T04:34:12;35.70;;;12.50;;
17422;SDS011;8829;47.932;7.810;2024-01-07T04:36:38;21.83;;;11.47;;
17422;SDS011;8829;47.932;7.810;2024-01-07T04:39:05;191.37;;;18.47;;
17422;SDS011;8829;47.932;7.810;2024-01-07T04:41:34;82.13;;;15.27;;
17422;SDS011;8829;47.932;7.810;2024-01-07T04:44:01;52.53;;;13.30;;
17422;SDS011;8829;47.932;7.810;2024-01-07T04:46:28;155.70;;;16.57;;
17422;SDS011;8829;47.932;7.810;2024-01-07T04:48:54;149.10;;;20.93;;
17422;SDS011;8829;47.932;7.810;2024-01-07T04:51:21;62.03;;;14.67;;
17422;SDS011;8829;47.932;7.810;2024-01-07T04:53:48;87.83;;;14.07;;
17422;SDS011;8829;47.932;7.810;2024-01-07T04:56:14;68.53;;;13.77;;
17422;SDS011;8829;47.932;7.810;2024-01-07T04:58:42;39.73;;;11.93;;
17422;SDS011;8829;47.932;7.810;2024-01-07T05:01:09;15.87;;;10.50;;
17422;SDS011;8829;47.932;7.810;2024-01-07T05:03:35;20.37;;;10.87;;
17422;SDS011;8829;47.932;7.810;2024-01-07T05:06:03;28.57;;;11.30;;
17422;SDS011;8829;47.932;7.810;2024-01-07T05:08:30;75.73;;;15.00;;
17422;SDS011;8829;47.932;7.810;2024-01-07T05:10:57;72.07;;;15.23;;
17422;SDS011;8829;47.932;7.810;2024-01-07T05:13:23;132.70;;;18.97;;
17422;SDS011;8829;47.932;7.810;2024-01-07T05:15:51;106.00;;;16.87;;
17422;SDS011;8829;47.932;7.810;2024-01-07T05:18:20;97.13;;;17.07;;
17422;SDS011;8829;47.932;7.810;2024-01-07T05:20:47;111.03;;;17.13;;
17422;SDS011;8829;47.932;7.810;2024-01-07T05:23:14;176.30;;;18.07;;
17422;SDS011;8829;47.932;7.810;2024-01-07T05:25:41;260.43;;;18.53;;
17422;SDS011;8829;47.932;7.810;2024-01-07T05:28:09;124.83;;;19.50;;
17422;SDS011;8829;47.932;7.810;2024-01-07T05:30:36;186.23;;;22.73;;
17422;SDS011;8829;47.932;7.810;2024-01-07T05:33:04;27.80;;;13.30;;
17422;SDS011;8829;47.932;7.810;2024-01-07T05:35:31;90.90;;;15.00;;
17422;SDS011;8829;47.932;7.810;2024-01-07T05:37:57;118.97;;;17.00;;
17422;SDS011;8829;47.932;7.810;2024-01-07T05:40:25;45.37;;;12.63;;
17422;SDS011;8829;47.932;7.810;2024-01-07T05:42:52;113.83;;;15.20;;
17422;SDS011;8829;47.932;7.810;2024-01-07T05:45:19;196.90;;;22.57;;
17422;SDS011;8829;47.932;7.810;2024-01-07T05:47:46;170.37;;;17.93;;
17422;SDS011;8829;47.932;7.810;2024-01-07T05:50:14;93.30;;;10.77;;
17422;SDS011;8829;47.932;7.810;2024-01-07T05:52:44;203.53;;;15.80;;
17422;SDS011;8829;47.932;7.810;2024-01-07T05:55:10;47.70;;;10.87;;
17422;SDS011;8829;47.932;7.810;2024-01-07T05:57:37;20.60;;;9.63;;
17422;SDS011;8829;47.932;7.810;2024-01-07T06:00:04;47.20;;;12.67;;
17422;SDS011;8829;47.932;7.810;2024-01-07T06:02:31;26.80;;;8.87;;
17422;SDS011;8829;47.932;7.810;2024-01-07T06:05:01;37.40;;;9.97;;
17422;SDS011;8829;47.932;7.810;2024-01-07T06:07:29;17.43;;;8.90;;
17422;SDS011;8829;47.932;7.810;2024-01-07T06:09:56;29.00;;;9.30;;
17422;SDS011;8829;47.932;7.810;2024-01-07T06:12:23;31.00;;;10.27;;
17422;SDS011;8829;47.932;7.810;2024-01-07T06:14:49;16.33;;;9.37;;
17422;SDS011;8829;47.932;7.810;2024-01-07T06:17:16;65.77;;;10.97;;
17422;SDS011;8829;47.932;7.810;2024-01-07T06:19:43;23.33;;;10.10;;
17422;SDS011;8829;47.932;7.810;2024-01-07T06:22:09;67.60;;;9.90;;
17422;SDS011;8829;47.932;7.810;2024-01-07T06:24:37;23.87;;;11.17;;
17422;SDS011;8829;47.932;7.810;2024-01-07T06:27:04;25.23;;;10.50;;
17422;SDS011;8829;47.932;7.810;2024-01-07T06:29:31;29.87;;;10.73;;
17422;SDS011;8829;47.932;7.810;2024-01-07T06:31:58;15.43;;;9.87;;
17422;SDS011;8829;47.932;7.810;2024-01-07T06:34:25;16.23;;;10.53;;
17422;SDS011;8829;47.932;7.810;2024-01-07T06:36:52;16.83;;;10.73;;
17422;SDS011;8829;47.932;7.810;2024-01-07T06:39:18;16.10;;;10.73;;
17422;SDS011;8829;47.932;7.810;2024-01-07T06:41:46;15.33;;;8.53;;
17422;SDS011;8829;47.932;7.810;2024-01-07T06:44:13;12.97;;;9.20;;
17422;SDS011;8829;47.932;7.810;2024-01-07T06:46:40;11.80;;;8.97;;
17422;SDS011;8829;47.932;7.810;2024-01-07T06:49:06;13.63;;;8.53;;
17422;SDS011;8829;47.932;7.810;2024-01-07T06:51:33;18.43;;;10.47;;
17422;SDS011;8829;47.932;7.810;2024-01-07T06:53:59;19.37;;;9.47;;
17422;SDS011;8829;47.932;7.810;2024-01-07T06:56:26;21.73;;;9.83;;
17422;SDS011;8829;47.932;7.810;2024-01-07T06:58:54;13.97;;;8.83;;
17422;SDS011;8829;47.932;7.810;2024-01-07T07:01:20;11.97;;;8.43;;
17422;SDS011;8829;47.932;7.810;2024-01-07T07:03:48;12.80;;;9.60;;
17422;SDS011;8829;47.932;7.810;2024-01-07T07:06:14;13.17;;;8.83;;
17422;SDS011;8829;47.932;7.810;2024-01-07T07:08:41;10.73;;;7.80;;
17422;SDS011;8829;47.932;7.810;2024-01-07T07:11:08;13.60;;;8.93;;
17422;SDS011;8829;47.932;7.810;2024-01-07T07:13:35;16.33;;;10.37;;
17422;SDS011;8829;47.932;7.810;2024-01-07T07:16:05;13.27;;;8.90;;
17422;SDS011;8829;47.932;7.810;2024-01-07T07:18:32;16.23;;;9.23;;
17422;SDS011;8829;47.932;7.810;2024-01-07T07:20:59;16.80;;;9.47;;
17422;SDS011;8829;47.932;7.810;2024-01-07T07:23:26;13.07;;;9.20;;
17422;SDS011;8829;47.932;7.810;2024-01-07T07:25:53;12.77;;;8.60;;
17422;SDS011;8829;47.932;7.810;2024-01-07T07:28:19;12.17;;;8.10;;
17422;SDS011;8829;47.932;7.810;2024-01-07T07:30:46;10.03;;;6.77;;
17422;SDS011;8829;47.932;7.810;2024-01-07T07:33:14;11.87;;;7.43;;
17422;SDS011;8829;47.932;7.810;2024-01-07T07:35:41;13.63;;;7.53;;
17422;SDS011;8829;47.932;7.810;2024-01-07T07:38:07;9.87;;;6.83;;
17422;SDS011;8829;47.932;7.810;2024-01-07T07:40:34;10.90;;;7.03;;
17422;SDS011;8829;47.932;7.810;2024-01-07T07:43:01;18.63;;;7.37;;
17422;SDS011;8829;47.932;7.810;2024-01-07T07:45:28;21.00;;;8.43;;
17422;SDS011;8829;47.932;7.810;2024-01-07T07:47:54;11.60;;;7.37;;
17422;SDS011;8829;47.932;7.810;2024-01-07T07:50:23;22.27;;;8.63;;
17422;SDS011;8829;47.932;7.810;2024-01-07T07:52:49;18.87;;;7.90;;
17422;SDS011;8829;47.932;7.810;2024-01-07T07:55:16;45.07;;;11.93;;
17422;SDS011;8829;47.932;7.810;2024-01-07T07:57:43;76.90;;;13.87;;
17422;SDS011;8829;47.932;7.810;2024-01-07T08:00:11;111.60;;;12.30;;
17422;SDS011;8829;47.932;7.810;2024-01-07T08:02:38;35.17;;;14.17;;
17422;SDS011;8829;47.932;7.810;2024-01-07T08:05:06;78.60;;;11.37;;
17422;SDS011;8829;47.932;7.810;2024-01-07T08:07:34;38.97;;;8.57;;
17422;SDS011;8829;47.932;7.810;2024-01-07T08:10:00;90.30;;;11.97;;
17422;SDS011;8829;47.932;7.810;2024-01-07T08:12:27;92.17;;;16.37;;
17422;SDS011;8829;47.932;7.810;2024-01-07T08:14:54;101.47;;;12.40;;
17422;SDS011;8829;47.932;7.810;2024-01-07T08:17:20;51.23;;;12.97;;
17422;SDS011;8829;47.932;7.810;2024-01-07T08:19:47;130.33;;;15.53;;
17422;SDS011;8829;47.932;7.810;2024-01-07T08:22:14;66.67;;;13.57;;
17422;SDS011;8829;47.932;7.810;2024-01-07T08:24:42;29.27;;;12.43;;
17422;SDS011;8829;47.932;7.810;2024-01-07T08:27:08;87.70;;;14.77;;
17422;SDS011;8829;47.932;7.810;2024-01-07T08:29:35;92.20;;;14.40;;
17422;SDS011;8829;47.932;7.810;2024-01-07T08:32:02;62.40;;;14.50;;
17422;SDS011;8829;47.932;7.810;2024-01-07T08:34:28;28.83;;;13.07;;
17422;SDS011;8829;47.932;7.810;2024-01-07T08:36:55;28.83;;;11.27;;
17422;SDS011;8829;47.932;7.810;2024-01-07T08:39:22;45.73;;;11.77;;
17422;SDS011;8829;47.932;7.810;2024-01-07T08:41:52;69.90;;;13.33;;
17422;SDS011;8829;47.932;7.810;2024-01-07T08:44:19;24.30;;;10.63;;
17422;SDS011;8829;47.932;7.810;2024-01-07T08:46:46;19.73;;;11.13;;
17422;SDS011;8829;47.932;7.810;2024-01-07T08:49:12;16.70;;;11.23;;
17422;SDS011;8829;47.932;7.810;2024-01-07T08:51:39;21.33;;;11.30;;
17422;SDS011;8829;47.932;7.810;2024-01-07T08:54:06;18.60;;;11.27;;
17422;SDS011;8829;47.932;7.810;2024-01-07T08:56:33;26.27;;;9.83;;
17422;SDS011;8829;47.932;7.810;2024-01-07T08:59:01;17.67;;;9.70;;
17422;SDS011;8829;47.932;7.810;2024-01-07T09:01:29;16.97;;;11.67;;
17422;SDS011;8829;47.932;7.810;2024-01-07T09:03:56;18.10;;;10.63;;
17422;SDS011;8829;47.932;7.810;2024-01-07T09:06:22;18.93;;;9.60;;
17422;SDS011;8829;47.932;7.810;2024-01-07T09:08:49;17.57;;;10.03;;
17422;SDS011;8829;47.932;7.810;2024-01-07T09:11:18;16.43;;;8.80;;
17422;SDS011;8829;47.932;7.810;2024-01-07T09:13:45;16.07;;;8.07;;
17422;SDS011;8829;47.932;7.810;2024-01-07T09:16:17;15.33;;;9.57;;
17422;SDS011;8829;47.932;7.810;2024-01-07T09:18:44;9.90;;;7.13;;
17422;SDS011;8829;47.932;7.810;2024-01-07T09:21:11;14.93;;;8.60;;
17422;SDS011;8829;47.932;7.810;2024-01-07T09:23:39;16.27;;;9.90;;
17422;SDS011;8829;47.932;7.810;2024-01-07T09:26:06;17.13;;;9.80;;
17422;SDS011;8829;47.932;7.810;2024-01-07T09:28:33;12.70;;;7.63;;
17422;SDS011;8829;47.932;7.810;2024-01-07T09:31:00;17.17;;;10.07;;
17422;SDS011;8829;47.932;7.810;2024-01-07T09:33:28;16.83;;;9.70;;
17422;SDS011;8829;47.932;7.810;2024-01-07T09:35:54;10.10;;;7.50;;
17422;SDS011;8829;47.932;7.810;2024-01-07T09:38:21;18.50;;;9.77;;
17422;SDS011;8829;47.932;7.810;2024-01-07T09:40:49;15.60;;;10.23;;
17422;SDS011;8829;47.932;7.810;2024-01-07T09:43:16;17.57;;;10.43;;
17422;SDS011;8829;47.932;7.810;2024-01-07T09:45:45;17.17;;;11.20;;
17422;SDS011;8829;47.932;7.810;2024-01-07T09:48:13;18.70;;;11.67;;
17422;SDS011;8829;47.932;7.810;2024-01-07T09:50:41;21.37;;;12.03;;
17422;SDS011;8829;47.932;7.810;2024-01-07T09:53:07;19.63;;;13.10;;
17422;SDS011;8829;47.932;7.810;2024-01-07T09:55:45;23.53;;;13.43;;
17422;SDS011;8829;47.932;7.810;2024-01-07T09:58:18;16.07;;;10.57;;
17422;SDS011;8829;47.932;7.810;2024-01-07T10:00:45;19.00;;;11.17;;
17422;SDS011;8829;47.932;7.810;2024-01-07T10:03:12;18.03;;;10.50;;
17422;SDS011;8829;47.932;7.810;2024-01-07T10:05:39;17.03;;;11.60;;
17422;SDS011;8829;47.932;7.810;2024-01-07T10:08:07;18.57;;;11.40;;
17422;SDS011;8829;47.932;7.810;2024-01-07T10:10:34;18.67;;;11.30;;
17422;SDS011;8829;47.932;7.810;2024-01-07T10:13:02;16.80;;;10.80;;
17422;SDS011;8829;47.932;7.810;2024-01-07T10:15:28;15.10;;;10.60;;
17422;SDS011;8829;47.932;7.810;2024-01-07T10:17:55;14.33;;;10.20;;
17422;SDS011;8829;47.932;7.810;2024-01-07T10:20:29;14.93;;;9.93;;
17422;SDS011;8829;47.932;7.810;2024-01-07T10:22:57;16.70;;;10.00;;
17422;SDS011;8829;47.932;7.810;2024-01-07T10:25:25;18.07;;;10.73;;
17422;SDS011;8829;47.932;7.810;2024-01-07T10:27:53;14.10;;;9.37;;
17422;SDS011;8829;47.932;7.810;2024-01-07T10:30:19;19.20;;;11.07;;
17422;SDS011;8829;47.932;7.810;2024-01-07T10:32:47;41.50;;;24.23;;
17422;SDS011;8829;47.932;7.810;2024-01-07T10:35:13;13.43;;;9.33;;
17422;SDS011;8829;47.932;7.810;2024-01-07T10:37:42;15.10;;;10.50;;
17422;SDS011;8829;47.932;7.810;2024-01-07T10:40:11;14.13;;;10.20;;
17422;SDS011;8829;47.932;7.810;2024-01-07T10:42:39;14.13;;;10.10;;
17422;SDS011;8829;47.932;7.810;2024-01-07T10:45:09;17.30;;;11.87;;
17422;SDS011;8829;47.932;7.810;2024-01-07T10:47:36;26.57;;;17.47;;
17422;SDS011;8829;47.932;7.810;2024-01-07T10:50:06;14.33;;;10.60;;
17422;SDS011;8829;47.932;7.810;2024-01-07T10:52:36;18.23;;;12.93;;
17422;SDS011;8829;47.932;7.810;2024-01-07T10:55:08;18.57;;;13.30;;
17422;SDS011;8829;47.932;7.810;2024-01-07T10:57:38;16.20;;;10.93;;
17422;SDS011;8829;47.932;7.810;2024-01-07T11:00:12;16.20;;;12.07;;
17422;SDS011;8829;47.932;7.810;2024-01-07T11:02:46;14.77;;;11.27;;
17422;SDS011;8829;47.932;7.810;2024-01-07T11:05:20;15.67;;;10.40;;
17422;SDS011;8829;47.932;7.810;2024-01-07T11:07:55;28.43;;;19.10;;
17422;SDS011;8829;47.932;7.810;2024-01-07T11:10:29;18.03;;;12.93;;
17422;SDS011;8829;47.932;7.810;2024-01-07T11:13:05;16.27;;;11.33;;
17422;SDS011;8829;47.932;7.810;2024-01-07T11:15:50;13.67;;;10.00;;
17422;SDS011;8829;47.932;7.810;2024-01-07T11:18:18;10.73;;;8.67;;
17422;SDS011;8829;47.932;7.810;2024-01-07T11:20:45;14.10;;;10.63;;
17422;SDS011;8829;47.932;7.810;2024-01-07T11:23:28;12.83;;;9.93;;
17422;SDS011;8829;47.932;7.810;2024-01-07T11:25:58;12.73;;;9.33;;
17422;SDS011;8829;47.932;7.810;2024-01-07T11:31:13;12.20;;;9.80;;
17422;SDS011;8829;47.932;7.810;2024-01-07T11:33:41;9.93;;;8.90;;
17422;SDS011;8829;47.932;7.810;2024-01-07T11:36:10;10.00;;;7.97;;
17422;SDS011;8829;47.932;7.810;2024-01-07T11:38:37;11.00;;;8.57;;
17422;SDS011;8829;47.932;7.810;2024-01-07T11:41:07;11.83;;;9.03;;
17422;SDS011;8829;47.932;7.810;2024-01-07T11:43:37;9.97;;;8.57;;
17422;SDS011;8829;47.932;7.810;2024-01-07T11:46:05;8.07;;;7.27;;
17422;SDS011;8829;47.932;7.810;2024-01-07T11:48:32;10.10;;;7.47;;
17422;SDS011;8829;47.932;7.810;2024-01-07T11:50:59;7.63;;;6.83;;
17422;SDS011;8829;47.932;7.810;2024-01-07T11:53:26;10.00;;;6.57;;
17422;SDS011;8829;47.932;7.810;2024-01-07T11:55:53;9.60;;;7.07;;
17422;SDS011;8829;47.932;7.810;2024-01-07T11:58:20;10.73;;;7.60;;
17422;SDS011;8829;47.932;7.810;2024-01-07T12:00:47;14.30;;;11.50;;
17422;SDS011;8829;47.932;7.810;2024-01-07T12:03:16;7.80;;;6.40;;
17422;SDS011;8829;47.932;7.810;2024-01-07T12:05:43;9.80;;;7.07;;
17422;SDS011;8829;47.932;7.810;2024-01-07T12:08:10;8.57;;;7.57;;
17422;SDS011;8829;47.932;7.810;2024-01-07T12:10:37;7.83;;;7.03;;
17422;SDS011;8829;47.932;7.810;2024-01-07T12:13:04;8.80;;;7.70;;
17422;SDS011;8829;47.932;7.810;2024-01-07T12:15:31;8.07;;;6.90;;
17422;SDS011;8829;47.932;7.810;2024-01-07T12:17:59;9.03;;;7.70;;
17422;SDS011;8829;47.932;7.810;2024-01-07T12:20:27;10.10;;;7.83;;
17422;SDS011;8829;47.932;7.810;2024-01-07T12:22:57;9.33;;;7.53;;
17422;SDS011;8829;47.932;7.810;2024-01-07T12:25:31;9.83;;;8.07;;
17422;SDS011;8829;47.932;7.810;2024-01-07T12:27:57;9.30;;;7.37;;
17422;SDS011;8829;47.932;7.810;2024-01-07T12:30:24;10.30;;;7.17;;
17422;SDS011;8829;47.932;7.810;2024-01-07T12:32:52;7.90;;;7.10;;
17422;SDS011;8829;47.932;7.810;2024-01-07T12:35:19;10.50;;;8.07;;
17422;SDS011;8829;47.932;7.810;2024-01-07T12:37:48;9.10;;;7.90;;
17422;SDS011;8829;47.932;7.810;2024-01-07T12:40:15;9.17;;;8.00;;
17422;SDS011;8829;47.932;7.810;2024-01-07T12:42:42;9.63;;;8.03;;
17422;SDS011;8829;47.932;7.810;2024-01-07T12:45:11;9.83;;;7.50;;
17422;SDS011;8829;47.932;7.810;2024-01-07T12:47:39;8.27;;;7.27;;
17422;SDS011;8829;47.932;7.810;2024-01-07T12:50:06;9.10;;;8.00;;
17422;SDS011;8829;47.932;7.810;2024-01-07T12:52:35;9.33;;;8.33;;
17422;SDS011;8829;47.932;7.810;2024-01-07T12:55:04;8.97;;;8.07;;
17422;SDS011;8829;47.932;7.810;2024-01-07T12:57:31;9.80;;;8.57;;
17422;SDS011;8829;47.932;7.810;2024-01-07T12:59:58;9.97;;;8.97;;
17422;SDS011;8829;47.932;7.810;2024-01-07T13:02:25;9.00;;;7.50;;
17422;SDS011;8829;47.932;7.810;2024-01-07T13:04:52;9.67;;;8.20;;
17422;SDS011;8829;47.932;7.810;2024-01-07T13:07:20;9.63;;;8.17;;
17422;SDS011;8829;47.932;7.810;2024-01-07T13:09:48;12.30;;;9.00;;
17422;SDS011;8829;47.932;7.810;2024-01-07T13:12:16;9.17;;;8.27;;
17422;SDS011;8829;47.932;7.810;2024-01-07T13:14:43;10.27;;;9.20;;
17422;SDS011;8829;47.932;7.810;2024-01-07T13:17:12;11.83;;;9.43;;
17422;SDS011;8829;47.932;7.810;2024-01-07T13:19:38;10.10;;;9.07;;
17422;SDS011;8829;47.932;7.810;2024-01-07T13:22:05;9.73;;;8.17;;
17422;SDS011;8829;47.932;7.810;2024-01-07T13:24:32;11.67;;;8.20;;
17422;SDS011;8829;47.932;7.810;2024-01-07T13:26:58;10.83;;;8.87;;
17422;SDS011;8829;47.932;7.810;2024-01-07T13:29:29;12.67;;;9.83;;
17422;SDS011;8829;47.932;7.810;2024-01-07T13:31:55;12.00;;;9.00;;
17422;SDS011;8829;47.932;7.810;2024-01-07T13:34:22;12.53;;;9.60;;
17422;SDS011;8829;47.932;7.810;2024-01-07T13:36:49;15.60;;;10.70;;
17422;SDS011;8829;47.932;7.810;2024-01-07T13:39:16;16.20;;;11.87;;
17422;SDS011;8829;47.932;7.810;2024-01-07T13:41:43;16.23;;;11.33;;
17422;SDS011;8829;47.932;7.810;2024-01-07T13:44:10;10.03;;;8.00;;
17422;SDS011;8829;47.932;7.810;2024-01-07T13:46:44;9.57;;;8.23;;
17422;SDS011;8829;47.932;7.810;2024-01-07T13:49:11;11.30;;;9.27;;
17422;SDS011;8829;47.932;7.810;2024-01-07T13:51:38;12.37;;;9.77;;
17422;SDS011;8829;47.932;7.810;2024-01-07T13:54:05;12.20;;;9.97;;
17422;SDS011;8829;47.932;7.810;2024-01-07T13:56:32;11.20;;;9.53;;
17422;SDS011;8829;47.932;7.810;2024-01-07T13:59:00;12.30;;;9.87;;
17422;SDS011;8829;47.932;7.810;2024-01-07T14:01:28;11.83;;;9.37;;
17422;SDS011;8829;47.932;7.810;2024-01-07T14:03:56;10.43;;;8.47;;
17422;SDS011;8829;47.932;7.810;2024-01-07T14:06:23;13.77;;;10.17;;
17422;SDS011;8829;47.932;7.810;2024-01-07T14:08:49;12.97;;;9.60;;
17422;SDS011;8829;47.932;7.810;2024-01-07T14:11:17;14.03;;;10.60;;
17422;SDS011;8829;47.932;7.810;2024-01-07T14:13:44;12.63;;;9.57;;
17422;SDS011;8829;47.932;7.810;2024-01-07T14:16:11;14.40;;;10.80;;
17422;SDS011;8829;47.932;7.810;2024-01-07T14:18:38;10.30;;;8.90;;
17422;SDS011;8829;47.932;7.810;2024-01-07T14:21:07;11.83;;;9.97;;
17422;SDS011;8829;47.932;7.810;2024-01-07T14:23:34;12.67;;;9.80;;
17422;SDS011;8829;47.932;7.810;2024-01-07T14:26:01;12.13;;;9.47;;
17422;SDS011;8829;47.932;7.810;2024-01-07T14:28:28;9.77;;;8.37;;
17422;SDS011;8829;47.932;7.810;2024-01-07T14:30:55;12.77;;;10.10;;
17422;SDS011;8829;47.932;7.810;2024-01-07T14:33:23;11.70;;;9.50;;
17422;SDS011;8829;47.932;7.810;2024-01-07T14:35:50;12.83;;;9.17;;
17422;SDS011;8829;47.932;7.810;2024-01-07T14:38:18;10.33;;;8.00;;
17422;SDS011;8829;47.932;7.810;2024-01-07T14:40:44;11.10;;;9.40;;
17422;SDS011;8829;47.932;7.810;2024-01-07T14:43:12;15.87;;;10.57;;
17422;SDS011;8829;47.932;7.810;2024-01-07T14:45:39;13.60;;;10.50;;
17422;SDS011;8829;47.932;7.810;2024-01-07T14:48:06;12.70;;;9.13;;
17422;SDS011;8829;47.932;7.810;2024-01-07T14:50:35;11.97;;;9.90;;